Time;durP1;ratioP1;P1;durP2;ratioP2;P2;SDS_P1;SDS_P2;PMS_P1;PMS_P2;Temp;Humidity;BMP_temperature;BMP_pressure;BME280_temperature;BME280_humidity;BME280_pressure;Samples;Min_cycle;Max_cycle;Signal;HPM_P1;HPM_P2
2020/12/04 00:01:01;;;;;;;53.60;18.67;;;;;;;-5.26;100.00;94341.06;4995780;28;20038;-46
2020/12/04 00:03:28;;;;;;;52.30;19.52;;;;;;;-5.31;100.00;94345.66;5028449;28;20049;-48
2020/12/04 00:05:55;;;;;;;52.30;20.73;;;;;;;-5.31;100.00;94341.34;5001668;28;20116;-48
2020/12/04 00:08:22;;;;;;;55.80;23.73;;;;;;;-5.22;100.00;94328.84;5026421;28;20600;-48
2020/12/04 00:10:50;;;;;;;68.57;24.83;;;;;;;-5.06;100.00;94325.16;4995369;28;20116;-47
2020/12/04 00:13:17;;;;;;;68.57;25.63;;;;;;;-5.00;100.00;94316.19;5024452;28;20038;-48
2020/12/04 00:15:44;;;;;;;72.30;27.77;;;;;;;-4.87;100.00;94304.16;5026969;28;20056;-52
2020/12/04 00:18:11;;;;;;;64.25;21.88;;;;;;;-4.87;100.00;94314.44;5012245;28;20052;-47
2020/12/04 00:20:39;;;;;;;61.13;24.17;;;;;;;-4.80;100.00;94322.53;5025227;28;20050;-49
2020/12/04 00:23:06;;;;;;;67.60;23.92;;;;;;;-4.76;100.00;94334.25;5003284;28;20499;-48
2020/12/04 00:25:33;;;;;;;67.45;23.45;;;;;;;-4.67;100.00;94333.63;5025966;28;20041;-47
2020/12/04 00:28:04;;;;;;;;;;;;;;;-4.67;100.00;94320.78;5004581;28;20049;-48
2020/12/04 00:30:31;;;;;;;64.68;22.25;;;;;;;-4.57;100.00;94321.78;5025061;28;20011;-47
2020/12/04 00:32:59;;;;;;;62.78;23.20;;;;;;;-4.59;100.00;94315.91;4999171;28;20103;-50
2020/12/04 00:35:25;;;;;;;63.35;22.90;;;;;;;-4.51;100.00;94311.97;5026235;28;20144;-47
2020/12/04 00:37:53;;;;;;;61.55;22.20;;;;;;;-4.54;100.00;94301.00;4997068;28;20499;-47
2020/12/04 00:40:20;;;;;;;58.10;22.42;;;;;;;-4.72;100.00;94298.88;5026708;28;20124;-47
2020/12/04 00:42:47;;;;;;;56.80;21.65;;;;;;;-4.73;100.00;94308.34;5000973;28;20450;-48
2020/12/04 00:45:15;;;;;;;59.15;20.92;;;;;;;-4.61;100.00;94316.94;5029739;28;20132;-48
2020/12/04 00:47:42;;;;;;;64.65;21.60;;;;;;;-4.60;100.00;94311.72;4981631;28;20426;-46
2020/12/04 00:50:11;;;;;;;69.10;23.55;;;;;;;-4.41;100.00;94292.41;5008377;28;20538;-45
2020/12/04 00:52:38;;;;;;;55.95;21.80;;;;;;;-4.41;100.00;94288.09;4986852;28;20415;-46
2020/12/04 00:55:05;;;;;;;60.88;22.73;;;;;;;-4.37;100.00;94289.53;5026527;28;20053;-48
2020/12/04 00:57:32;;;;;;;58.22;23.02;;;;;;;-4.30;100.00;94282.22;4979488;28;20128;-47
2020/12/04 00:59:59;;;;;;;59.97;22.60;;;;;;;-4.30;100.00;94274.50;5028701;28;20128;-49
2020/12/04 01:02:27;;;;;;;56.45;22.30;;;;;;;-4.32;100.00;94273.75;5025276;28;20527;-47
2020/12/04 01:04:54;;;;;;;60.45;23.15;;;;;;;-4.33;100.00;94272.94;4994700;28;20467;-46
2020/12/04 01:07:21;;;;;;;58.13;21.08;;;;;;;-4.30;100.00;94267.59;5025931;28;20503;-47
2020/12/04 01:09:48;;;;;;;61.33;22.15;;;;;;;-4.32;100.00;94271.19;4991973;28;20053;-47
2020/12/04 01:12:15;;;;;;;56.67;20.67;;;;;;;-4.34;100.00;94267.91;5029887;28;20080;-50
2020/12/04 01:14:42;;;;;;;57.90;22.17;;;;;;;-4.38;100.00;94254.44;4995594;28;20049;-50
2020/12/04 01:17:09;;;;;;;61.88;24.02;;;;;;;-4.33;100.00;94251.56;5024435;28;20065;-46
2020/12/04 01:19:37;;;;;;;63.95;22.70;;;;;;;-4.44;100.00;94242.03;5000507;28;20045;-47
2020/12/04 01:22:05;;;;;;;61.45;21.98;;;;;;;-4.45;100.00;94242.13;5024534;28;20144;-46
2020/12/04 01:24:32;;;;;;;66.13;24.67;;;;;;;-4.44;100.00;94247.19;5000270;28;20042;-47
2020/12/04 01:26:59;;;;;;;50.90;20.95;;;;;;;-4.42;100.00;94242.72;5026863;28;20053;-48
2020/12/04 01:29:26;;;;;;;63.20;22.23;;;;;;;-4.42;100.00;94249.63;4997788;28;20037;-47
2020/12/04 01:31:53;;;;;;;63.53;21.48;;;;;;;-4.42;100.00;94244.47;5025627;28;20111;-52
2020/12/04 01:34:21;;;;;;;61.38;23.83;;;;;;;-4.39;100.00;94239.13;4996082;28;20092;-54
2020/12/04 01:36:50;;;;;;;58.67;23.70;;;;;;;-4.46;100.00;94241.31;5025494;28;20141;-52
2020/12/04 01:39:17;;;;;;;58.67;21.00;;;;;;;-4.42;100.00;94237.59;4996469;28;22421;-47
2020/12/04 01:41:44;;;;;;;62.35;22.92;;;;;;;-4.45;100.00;94237.78;5025777;28;20041;-47
2020/12/04 01:44:12;;;;;;;57.65;22.38;;;;;;;-4.48;100.00;94239.78;5016256;28;20049;-53
2020/12/04 01:46:39;;;;;;;62.28;23.00;;;;;;;-4.51;100.00;94224.56;5016414;28;20053;-47
2020/12/04 01:49:06;;;;;;;54.58;21.13;;;;;;;-4.56;100.00;94230.84;5023688;28;20042;-51
2020/12/04 01:51:34;;;;;;;53.83;20.17;;;;;;;-4.62;100.00;94251.84;4994285;28;20037;-46
2020/12/04 01:54:02;;;;;;;65.63;24.70;;;;;;;-4.60;100.00;94236.31;5026213;28;20049;-51
2020/12/04 01:56:37;;;;;;;64.47;20.65;;;;;;;-4.72;100.00;94242.31;5000727;28;20108;-51
2020/12/04 01:59:04;;;;;;;61.22;23.38;;;;;;;-4.62;100.00;94230.47;5023029;28;20046;-47
2020/12/04 02:01:33;;;;;;;63.05;22.73;;;;;;;-4.66;100.00;94229.84;4995496;28;20034;-49
2020/12/04 02:04:00;;;;;;;54.28;21.02;;;;;;;-4.66;100.00;94223.91;5026098;28;20500;-47
2020/12/04 02:06:39;;;;;;;59.78;22.05;;;;;;;-4.61;100.00;94220.09;4992896;28;20041;-50
2020/12/04 02:09:09;;;;;;;60.22;22.05;;;;;;;-4.65;100.00;94215.25;5026106;28;20127;-47
2020/12/04 02:11:38;;;;;;;58.72;21.83;;;;;;;-4.63;100.00;94223.69;4998232;28;20572;-49
2020/12/04 02:14:05;;;;;;;62.22;23.27;;;;;;;-4.63;100.00;94205.69;5023037;28;20045;-50
2020/12/04 02:16:32;;;;;;;61.30;21.63;;;;;;;-4.76;100.00;94213.44;5004020;28;20088;-50
2020/12/04 02:18:59;;;;;;;61.20;22.80;;;;;;;-4.70;100.00;94218.16;5021405;28;20152;-49
2020/12/04 02:21:27;;;;;;;54.35;20.40;;;;;;;-4.74;100.00;94201.31;4992512;28;20590;-53
2020/12/04 02:23:54;;;;;;;56.58;23.60;;;;;;;-4.74;100.00;94185.88;5028166;28;20606;-49
2020/12/04 02:26:22;;;;;;;61.63;23.63;;;;;;;-4.78;100.00;94187.03;4995168;28;20091;-49
2020/12/04 02:28:49;;;;;;;53.75;20.60;;;;;;;-4.81;100.00;94180.34;5025217;28;20128;-51
2020/12/04 02:31:16;;;;;;;58.70;21.33;;;;;;;-4.89;100.00;94174.09;4998091;28;20045;-48
2020/12/04 02:33:45;;;;;;;58.78;22.30;;;;;;;-4.93;100.00;94177.81;5023502;28;20057;-52
2020/12/04 02:36:12;;;;;;;36.10;13.63;;;;;;;-4.88;100.00;94179.16;5019663;28;20120;-55
2020/12/04 02:38:41;;;;;;;53.70;19.75;;;;;;;-4.83;100.00;94163.41;5014745;28;20125;-49
2020/12/04 02:41:09;;;;;;;48.85;19.27;;;;;;;-4.80;100.00;94158.03;5026385;28;20049;-48
2020/12/04 02:43:37;;;;;;;63.42;22.05;;;;;;;-4.88;100.00;94156.03;4994524;28;20046;-47
2020/12/04 02:46:07;;;;;;;45.40;16.25;;;;;;;-4.85;100.00;94157.53;5024106;28;20054;-49
2020/12/04 02:48:34;;;;;;;61.40;22.42;;;;;;;-4.88;100.00;94165.47;5003360;28;20038;-48
2020/12/04 02:51:01;;;;;;;54.85;20.15;;;;;;;-4.89;100.00;94166.38;5019876;28;20045;-46
2020/12/04 02:53:28;;;;;;;75.32;26.70;;;;;;;-4.93;100.00;94154.69;4997147;28;20500;-47
2020/12/04 02:55:56;;;;;;;52.10;20.13;;;;;;;-4.93;100.00;94157.25;5025743;28;20041;-47
2020/12/04 02:58:23;;;;;;;54.85;18.65;;;;;;;-4.94;100.00;94148.72;4990265;28;20048;-47
2020/12/04 03:00:51;;;;;;;57.05;20.58;;;;;;;-4.93;100.00;94144.41;5025171;28;20041;-47
2020/12/04 03:03:18;;;;;;;63.45;23.13;;;;;;;-4.97;100.00;94132.72;4998197;28;20474;-52
2020/12/04 03:05:45;;;;;;;59.72;22.25;;;;;;;-4.99;100.00;94147.41;5026561;28;20072;-51
2020/12/04 03:08:12;;;;;;;63.38;22.30;;;;;;;-5.04;100.00;94145.19;5000667;28;20041;-50
2020/12/04 03:10:39;;;;;;;65.18;20.98;;;;;;;-5.08;100.00;94133.47;5020284;28;20045;-49
2020/12/04 03:13:07;;;;;;;68.88;24.63;;;;;;;-4.84;100.00;94133.50;4994258;28;20176;-50
2020/12/04 03:15:34;;;;;;;58.10;20.95;;;;;;;-4.85;100.00;94129.25;5023622;28;20703;-49
2020/12/04 03:18:01;;;;;;;65.07;25.08;;;;;;;-4.82;100.00;94118.75;4996384;28;20596;-51
2020/12/04 03:20:28;;;;;;;58.47;21.63;;;;;;;-4.77;100.00;94114.94;5024459;28;20411;-49
2020/12/04 03:22:55;;;;;;;61.20;21.55;;;;;;;-4.79;100.00;94118.53;5023397;28;20140;-48
2020/12/04 03:25:22;;;;;;;64.85;22.00;;;;;;;-4.76;100.00;94120.91;5000972;28;20088;-48
2020/12/04 03:27:49;;;;;;;62.33;21.70;;;;;;;-4.68;100.00;94104.91;5022040;28;20041;-52
2020/12/04 03:30:17;;;;;;;52.70;18.95;;;;;;;-4.65;100.00;94112.41;4990499;28;20123;-50
2020/12/04 03:32:44;;;;;;;69.60;25.23;;;;;;;-4.62;100.00;94101.91;5005008;28;20052;-51
2020/12/04 03:35:11;;;;;;;77.60;30.83;;;;;;;-4.63;100.00;94105.41;4973110;28;20223;-51
2020/12/04 03:37:38;;;;;;;68.75;22.63;;;;;;;-4.60;100.00;94102.63;5019948;28;20472;-55
2020/12/04 03:40:05;;;;;;;59.80;21.98;;;;;;;-4.59;100.00;94102.50;4998318;28;20046;-50
2020/12/04 03:42:33;;;;;;;71.30;25.58;;;;;;;-4.59;100.00;94107.66;5021562;28;20127;-48
2020/12/04 03:45:00;;;;;;;78.43;29.15;;;;;;;-4.55;100.00;94095.38;5003348;28;20137;-53
2020/12/04 03:47:28;;;;;;;62.25;22.85;;;;;;;-4.60;100.00;94094.91;5024661;28;20037;-50
2020/12/04 03:49:55;;;;;;;81.55;26.90;;;;;;;-4.56;100.00;94086.03;4997627;28;20037;-49
2020/12/04 03:52:22;;;;;;;67.35;23.92;;;;;;;-4.58;100.00;94096.44;5003762;28;20132;-48
2020/12/04 03:54:49;;;;;;;70.55;23.58;;;;;;;-4.55;100.00;94098.78;4997151;28;20501;-49
2020/12/04 03:57:16;;;;;;;79.53;27.67;;;;;;;-4.49;100.00;94088.97;5010999;28;20107;-46
2020/12/04 03:59:43;;;;;;;70.70;24.73;;;;;;;-4.56;100.00;94079.13;4981660;28;20365;-51
2020/12/04 04:02:10;;;;;;;64.95;23.52;;;;;;;-4.58;100.00;94068.16;5023988;28;20124;-46
2020/12/04 04:04:38;;;;;;;78.70;28.92;;;;;;;-4.54;100.00;94064.44;5012071;28;20049;-48
2020/12/04 04:07:05;;;;;;;65.60;24.15;;;;;;;-4.52;100.00;94061.72;4985194;28;20480;-47
2020/12/04 04:09:32;;;;;;;79.10;29.48;;;;;;;-4.48;100.00;94083.72;5026001;28;20092;-48
2020/12/04 04:11:59;;;;;;;78.40;28.85;;;;;;;-4.41;100.00;94081.50;4993251;28;20041;-48
2020/12/04 04:14:26;;;;;;;81.65;28.77;;;;;;;-4.34;100.00;94072.41;5026437;28;20148;-49
2020/12/04 04:16:53;;;;;;;72.85;24.05;;;;;;;-4.28;100.00;94058.28;4997067;28;20045;-46
2020/12/04 04:19:21;;;;;;;69.43;24.42;;;;;;;-4.25;100.00;94056.28;5025228;28;20504;-47
2020/12/04 04:21:49;;;;;;;77.10;27.30;;;;;;;-4.20;100.00;94051.63;5000228;28;20038;-48
2020/12/04 04:24:16;;;;;;;74.05;24.98;;;;;;;-4.15;100.00;94059.00;5026790;28;20046;-46
2020/12/04 04:26:43;;;;;;;74.60;26.52;;;;;;;-4.10;100.00;94062.03;5007570;28;20401;-48
2020/12/04 04:29:09;;;;;;;78.35;26.83;;;;;;;-4.10;100.00;94051.75;5022375;28;20124;-48
2020/12/04 04:31:36;;;;;;;54.38;21.23;;;;;;;-4.07;100.00;94054.91;4994244;28;20411;-47
2020/12/04 04:34:03;;;;;;;72.97;23.65;;;;;;;-4.04;100.00;94042.75;5024129;28;20512;-49
2020/12/04 04:36:30;;;;;;;52.15;19.63;;;;;;;-4.00;100.00;94047.53;4999088;28;20049;-50
2020/12/04 04:38:58;;;;;;;61.03;22.25;;;;;;;-3.95;100.00;94060.06;5029400;28;20543;-49
2020/12/04 04:41:25;;;;;;;69.10;26.13;;;;;;;-3.99;100.00;94064.63;4997319;28;20077;-50
2020/12/04 04:43:54;;;;;;;63.97;23.00;;;;;;;-3.77;100.00;94068.16;5026065;28;20140;-48
2020/12/04 04:46:32;;;;;;;70.22;24.73;;;;;;;-3.75;100.00;94064.53;5024047;28;20057;-52
2020/12/04 04:49:00;;;;;;;58.88;23.55;;;;;;;-3.92;100.00;94067.56;5022778;28;20057;-51
2020/12/04 04:51:27;;;;;;;76.18;27.50;;;;;;;-3.99;100.00;94067.22;5020839;28;20045;-50
2020/12/04 04:53:56;;;;;;;70.47;25.98;;;;;;;-3.98;100.00;94061.13;4996487;28;20103;-47
2020/12/04 04:56:24;;;;;;;63.13;24.50;;;;;;;-3.96;100.00;94055.84;5027794;28;20037;-53
2020/12/04 04:58:51;;;;;;;72.15;26.15;;;;;;;-3.97;100.00;94061.94;4994365;28;20042;-50
2020/12/04 05:01:18;;;;;;;63.90;23.23;;;;;;;-3.96;100.00;94058.41;5023548;28;20034;-48
2020/12/04 05:03:58;;;;;;;70.80;25.42;;;;;;;-3.94;100.00;94057.38;4999454;28;20053;-48
2020/12/04 05:06:32;;;;;;;62.10;22.33;;;;;;;-3.93;100.00;94056.44;5025044;28;20535;-48
2020/12/04 05:09:03;;;;;;;61.15;22.77;;;;;;;-3.84;100.00;94066.03;5009553;28;20091;-47
2020/12/04 05:11:31;;;;;;;;;;;;;;;-3.80;100.00;94050.34;5024524;28;20041;-54
2020/12/04 05:14:15;;;;;;;62.95;23.70;;;;;;;-3.77;100.00;94042.41;4995204;28;19979;-52
2020/12/04 05:16:43;;;;;;;67.78;23.85;;;;;;;-3.77;100.00;94039.84;5026928;28;20128;-52
2020/12/04 05:19:10;;;;;;;60.20;22.73;;;;;;;-3.80;100.00;94035.72;4991324;28;20046;-50
2020/12/04 05:21:38;;;;;;;62.63;24.05;;;;;;;-3.77;100.00;94038.06;5027133;28;20074;-50
2020/12/04 05:24:05;;;;;;;61.35;21.45;;;;;;;-3.72;100.00;94043.66;4994788;28;20104;-49
2020/12/04 05:26:34;;;;;;;73.85;24.80;;;;;;;-3.74;100.00;94039.59;5024755;28;20046;-52
2020/12/04 05:29:02;;;;;;;63.78;24.83;;;;;;;-3.74;100.00;94042.16;4997968;28;20045;-50
2020/12/04 05:31:31;;;;;;;66.93;25.45;;;;;;;-3.74;100.00;94044.75;5024093;28;20512;-47
2020/12/04 05:34:00;;;;;;;64.45;24.73;;;;;;;-3.78;100.00;94048.50;4992551;28;20426;-51
2020/12/04 05:36:28;;;;;;;58.80;21.13;;;;;;;-3.77;100.00;94050.13;5026239;28;20045;-50
2020/12/04 05:38:57;;;;;;;70.95;26.52;;;;;;;-3.83;100.00;94048.84;4995397;28;20107;-52
2020/12/04 05:41:24;;;;;;;70.13;23.30;;;;;;;-3.80;100.00;94050.34;5025807;28;20132;-50
2020/12/04 05:43:53;;;;;;;61.60;23.05;;;;;;;-3.80;100.00;94058.09;4994669;28;20053;-50
2020/12/04 05:46:23;;;;;;;62.03;22.60;;;;;;;-3.70;100.00;94054.69;5026962;28;20055;-49
2020/12/04 05:48:57;;;;;;;62.58;22.15;;;;;;;-3.64;100.00;94061.13;5021430;28;20045;-50
2020/12/04 05:51:26;;;;;;;61.38;21.50;;;;;;;-3.67;100.00;94057.03;5003387;28;20409;-48
2020/12/04 05:53:54;;;;;;;61.17;23.08;;;;;;;-3.76;100.00;94070.59;5027551;28;20053;-48
2020/12/04 05:56:21;;;;;;;57.92;20.92;;;;;;;-3.83;100.00;94061.69;4993132;28;20042;-50
2020/12/04 05:58:49;;;;;;;59.85;21.92;;;;;;;-3.96;100.00;94066.13;5027025;28;20045;-50
2020/12/04 06:01:17;;;;;;;58.72;19.02;;;;;;;-4.13;100.00;94068.25;4992654;28;20092;-46
2020/12/04 06:03:49;;;;;;;65.85;25.17;;;;;;;-4.18;100.00;94059.22;5024444;28;20038;-50
2020/12/04 06:06:24;;;;;;;51.63;20.98;;;;;;;-4.15;100.00;94059.81;5000334;28;20123;-46
2020/12/04 06:08:57;;;;;;;54.60;20.40;;;;;;;-4.15;100.00;94057.25;5020833;28;20167;-49
2020/12/04 06:11:25;;;;;;;62.35;23.40;;;;;;;-4.10;100.00;94062.03;4994819;28;20053;-49
2020/12/04 06:13:54;;;;;;;48.13;20.23;;;;;;;-4.04;100.00;94068.47;5025562;28;20061;-50
2020/12/04 06:16:22;;;;;;;63.67;22.40;;;;;;;-3.98;100.00;94062.88;4987776;28;20076;-51
2020/12/04 06:18:50;;;;;;;61.45;23.25;;;;;;;-3.92;100.00;94063.25;5026503;28;20048;-52
2020/12/04 06:21:43;;;;;;;70.13;27.08;;;;;;;-3.85;100.00;94055.88;4993893;28;20117;-47
2020/12/04 06:24:10;;;;;;;68.47;23.50;;;;;;;-3.78;100.00;94081.97;5026913;28;20499;-48
2020/12/04 06:26:49;;;;;;;70.78;27.02;;;;;;;-3.64;100.00;94064.50;4998978;28;20041;-47
2020/12/04 06:29:16;;;;;;;70.10;24.60;;;;;;;-3.65;100.00;94074.91;5023017;28;20129;-49
2020/12/04 06:31:44;;;;;;;64.72;23.95;;;;;;;-3.54;100.00;94079.25;4989193;28;20084;-48
2020/12/04 06:34:16;;;;;;;63.72;23.63;;;;;;;-3.63;100.00;94073.88;5025793;28;20443;-47
2020/12/04 06:36:44;;;;;;;73.50;25.25;;;;;;;-3.58;100.00;94082.06;4995201;28;20076;-50
2020/12/04 06:39:27;;;;;;;76.13;27.98;;;;;;;-3.59;100.00;94088.16;5028625;28;20647;-50
2020/12/04 06:41:54;;;;;;;56.90;21.02;;;;;;;-3.64;100.00;94079.97;4993899;28;20061;-48
2020/12/04 06:44:23;;;;;;;64.40;25.45;;;;;;;-3.67;100.00;94074.22;5023159;28;20045;-47
2020/12/04 06:46:53;;;;;;;70.10;26.90;;;;;;;-3.64;100.00;94061.13;4993142;28;20041;-48
2020/12/04 06:49:35;;;;;;;57.95;21.95;;;;;;;-3.74;100.00;94057.63;5023635;28;20519;-52
2020/12/04 06:52:10;;;;;;;56.72;21.50;;;;;;;-3.78;100.00;94090.50;4980104;28;20070;-48
2020/12/04 06:54:39;;;;;;;58.42;22.52;;;;;;;-3.84;100.00;94098.69;5026339;28;20073;-50
2020/12/04 06:57:06;;;;;;;56.15;21.50;;;;;;;-3.91;100.00;94082.88;4997037;28;20587;-51
2020/12/04 06:59:35;;;;;;;57.60;22.63;;;;;;;-3.94;100.00;94059.13;5025744;28;20041;-46
2020/12/04 07:02:04;;;;;;;63.63;23.15;;;;;;;-3.99;100.00;94061.22;4996397;28;20420;-48
2020/12/04 07:04:33;;;;;;;48.33;18.17;;;;;;;-4.01;100.00;94055.38;5024667;28;20476;-52
2020/12/04 07:07:05;;;;;;;49.75;19.88;;;;;;;-4.01;100.00;94055.38;5014727;28;20667;-52
2020/12/04 07:09:33;;;;;;;60.10;21.05;;;;;;;-3.96;100.00;94061.00;5021610;28;20033;-51
2020/12/04 07:12:00;;;;;;;54.85;19.98;;;;;;;-3.82;100.00;94076.19;5030131;28;20078;-51
2020/12/04 07:14:28;;;;;;;66.95;25.67;;;;;;;-3.68;100.00;94078.56;4999858;28;20697;-50
2020/12/04 07:16:56;;;;;;;65.28;23.92;;;;;;;-3.55;100.00;94073.28;5028608;28;20053;-48
2020/12/04 07:19:24;;;;;;;57.25;19.75;;;;;;;-3.52;100.00;94059.34;5004202;28;20100;-52
2020/12/04 07:21:51;;;;;;;52.40;20.45;;;;;;;-3.56;100.00;94066.50;5026509;28;20048;-46
2020/12/04 07:24:19;;;;;;;60.78;23.20;;;;;;;-3.40;100.00;94073.88;4994309;28;20108;-50
2020/12/04 07:26:50;;;;;;;61.22;23.27;;;;;;;-3.24;100.00;94081.19;5032666;28;20067;-50
2020/12/04 07:29:17;;;;;;;57.80;21.33;;;;;;;-3.22;100.00;94085.28;4997672;28;20045;-48
2020/12/04 07:31:46;;;;;;;47.90;17.75;;;;;;;-3.36;100.00;94075.25;5028801;28;20033;-47
2020/12/04 07:34:13;;;;;;;51.17;20.00;;;;;;;-3.30;100.00;94077.38;5000164;28;20041;-48
2020/12/04 07:36:49;;;;;;;57.30;19.92;;;;;;;-3.13;100.00;94081.19;5026798;28;20147;-50
2020/12/04 07:39:28;;;;;;;64.38;24.30;;;;;;;-3.06;100.00;94071.19;4998543;28;20049;-48
2020/12/04 07:41:57;;;;;;;56.20;22.15;;;;;;;-3.05;100.00;94070.28;5026435;28;20061;-47
2020/12/04 07:44:32;;;;;;;58.28;22.10;;;;;;;-3.03;100.00;94061.47;4996999;28;20045;-48
2020/12/04 07:47:01;;;;;;;57.67;22.02;;;;;;;-2.97;100.00;94060.16;5028966;28;20045;-47
2020/12/04 07:49:29;;;;;;;52.25;21.80;;;;;;;-2.64;100.00;94060.03;4996531;28;20139;-50
2020/12/04 07:52:13;;;;;;;61.05;22.50;;;;;;;-2.24;100.00;94056.75;5024464;28;20053;-47
2020/12/04 07:54:40;;;;;;;54.67;22.65;;;;;;;-2.14;100.00;94049.09;4999137;28;20508;-47
2020/12/04 07:57:08;;;;;;;52.00;23.33;;;;;;;-2.44;100.00;94057.59;5027922;28;20049;-49
2020/12/04 07:59:36;;;;;;;55.30;21.85;;;;;;;-2.37;100.00;94058.75;4999811;28;20053;-53
2020/12/04 08:02:05;;;;;;;52.10;20.55;;;;;;;-2.41;100.00;94047.00;5024721;28;20060;-51
2020/12/04 08:04:34;;;;;;;53.25;21.65;;;;;;;-2.29;100.00;94046.00;4995404;28;21905;-50
2020/12/04 08:07:06;;;;;;;48.63;20.58;;;;;;;-2.25;100.00;94044.00;5030005;28;20115;-51
2020/12/04 08:09:38;;;;;;;48.70;18.80;;;;;;;-2.18;100.00;94038.19;4999241;28;21249;-53
2020/12/04 08:12:10;;;;;;;48.38;20.30;;;;;;;-2.15;100.00;94027.63;5031305;28;20049;-49
2020/12/04 08:14:38;;;;;;;47.47;20.98;;;;;;;-2.03;100.00;94032.69;5013189;28;20060;-54
2020/12/04 08:17:06;;;;;;;44.75;18.55;;;;;;;-2.04;100.00;94034.47;5024677;28;20136;-49
2020/12/04 08:19:36;;;;;;;52.72;22.58;;;;;;;-2.03;100.00;94043.88;5028317;28;20045;-50
2020/12/04 08:22:05;;;;;;;50.53;21.05;;;;;;;-1.87;100.00;94037.41;4990452;28;20131;-50
2020/12/04 08:24:35;;;;;;;55.35;22.77;;;;;;;-1.53;100.00;94041.34;5028267;28;20072;-49
2020/12/04 08:27:10;;;;;;;47.88;19.08;;;;;;;-1.48;100.00;94033.19;5002002;28;20095;-47
2020/12/04 08:29:39;;;;;;;49.30;21.50;;;;;;;-1.45;100.00;94030.34;5024991;28;20695;-47
2020/12/04 08:32:14;;;;;;;51.85;22.73;;;;;;;-1.48;100.00;94028.00;4999439;28;20575;-48
2020/12/04 08:34:44;;;;;;;55.08;21.75;;;;;;;-1.40;100.00;94032.53;5024697;28;20135;-48
2020/12/04 08:37:12;;;;;;;48.13;19.92;;;;;;;-1.33;100.00;94042.22;4994082;28;20051;-49
2020/12/04 08:39:49;;;;;;;46.22;19.52;;;;;;;-1.17;100.00;94053.81;5029087;28;20071;-47
2020/12/04 08:42:21;;;;;;;56.13;21.52;;;;;;;-1.30;100.00;94051.47;4995734;28;20495;-51
2020/12/04 08:44:59;;;;;;;51.28;22.13;;;;;;;-1.36;100.00;94045.06;5030469;28;20041;-51
2020/12/04 08:47:31;;;;;;;48.75;21.15;;;;;;;-1.34;100.00;94048.34;4999119;28;20049;-55
2020/12/04 08:50:04;;;;;;;47.70;19.92;;;;;;;-1.25;100.00;94057.06;5024167;28;20050;-55
2020/12/04 08:52:43;;;;;;;55.95;22.67;;;;;;;-1.01;99.88;94054.13;4998559;28;20053;-50
2020/12/04 08:55:13;;;;;;;48.90;21.13;;;;;;;-1.04;98.36;94057.78;5028121;28;20407;-51
2020/12/04 08:57:40;;;;;;;48.63;20.98;;;;;;;-0.92;98.75;94057.69;4988765;28;20124;-50
2020/12/04 09:00:10;;;;;;;47.67;19.63;;;;;;;-0.54;97.11;94067.22;5030113;28;20068;-50
2020/12/04 09:02:38;;;;;;;47.27;19.70;;;;;;;-0.42;94.84;94066.13;4999519;28;20037;-52
2020/12/04 09:05:07;;;;;;;52.22;21.35;;;;;;;-0.58;96.46;94065.88;5026529;28;20660;-47
2020/12/04 09:07:35;;;;;;;54.47;23.08;;;;;;;-0.32;94.35;94066.94;5002302;28;20045;-47
2020/12/04 09:10:02;;;;;;;50.90;19.58;;;;;;;-0.02;93.46;94065.13;5024585;28;20033;-52
2020/12/04 09:12:31;;;;;;;49.45;20.25;;;;;;;-0.09;93.65;94069.22;4997768;28;20047;-52
2020/12/04 09:14:58;;;;;;;44.08;18.92;;;;;;;-0.12;92.65;94053.97;5027468;28;20111;-55
2020/12/04 09:17:25;;;;;;;45.67;19.50;;;;;;;-0.25;93.52;94057.66;4997416;28;20144;-47
2020/12/04 09:19:52;;;;;;;46.67;18.75;;;;;;;-0.16;94.54;94058.59;5028123;28;20053;-53
2020/12/04 09:22:19;;;;;;;49.35;21.38;;;;;;;-0.25;94.47;94055.06;5004654;28;20547;-49
2020/12/04 09:24:46;;;;;;;47.28;21.85;;;;;;;-0.20;94.89;94046.09;5027866;28;20091;-53
2020/12/04 09:27:14;;;;;;;42.58;18.67;;;;;;;-0.12;94.76;94048.78;5027683;28;20069;-49
2020/12/04 09:29:41;;;;;;;42.47;19.45;;;;;;;-0.17;94.55;94046.63;5001368;28;20049;-54
2020/12/04 09:32:12;;;;;;;46.80;16.80;;;;;;;-0.22;94.84;94028.09;5025723;28;20055;-53
2020/12/04 09:34:40;;;;;;;41.27;17.00;;;;;;;-0.15;95.86;94020.56;4991318;28;20132;-52
2020/12/04 09:37:20;;;;;;;41.72;17.00;;;;;;;-0.02;94.65;94013.31;5024746;28;20361;-51
2020/12/04 09:39:48;;;;;;;38.92;16.98;;;;;;;0.03;93.71;94005.94;4997341;28;20408;-52
2020/12/04 09:42:16;;;;;;;46.03;19.85;;;;;;;-0.04;94.16;94007.44;5024601;28;20053;-48
2020/12/04 09:44:45;;;;;;;41.63;18.92;;;;;;;-0.03;94.33;94004.75;5003776;28;20411;-52
2020/12/04 09:47:13;;;;;;;44.00;18.80;;;;;;;0.40;92.71;94002.53;5021682;28;20042;-50
2020/12/04 09:49:40;;;;;;;41.90;19.10;;;;;;;0.35;93.60;94002.97;4996225;28;20080;-51
2020/12/04 09:52:09;;;;;;;47.40;20.13;;;;;;;0.12;93.74;93996.50;5021658;28;20041;-47
2020/12/04 09:54:37;;;;;;;42.47;22.80;;;;;;;0.13;93.40;93975.63;4994421;28;20130;-48
2020/12/04 09:57:05;;;;;;;38.67;17.13;;;;;;;0.16;94.13;93977.13;5028157;28;20046;-52
2020/12/04 09:59:32;;;;;;;43.42;18.10;;;;;;;0.17;94.96;93977.00;4998094;28;20073;-50
2020/12/04 10:02:01;;;;;;;39.00;17.17;;;;;;;0.22;93.87;93979.16;5024020;28;20045;-51
2020/12/04 10:04:28;;;;;;;40.00;19.13;;;;;;;0.47;91.92;93967.28;4997622;28;20488;-49
2020/12/04 10:06:56;;;;;;;40.60;17.92;;;;;;;0.43;91.46;93965.94;5024183;28;20087;-50
2020/12/04 10:09:24;;;;;;;44.78;19.48;;;;;;;0.22;94.05;93963.59;4995020;28;20049;-47
2020/12/04 10:11:52;;;;;;;36.80;16.02;;;;;;;0.33;93.62;93966.00;5027358;28;20045;-50
2020/12/04 10:14:20;;;;;;;41.58;18.73;;;;;;;0.50;92.03;93954.03;4983463;28;20045;-54
2020/12/04 10:16:48;;;;;;;39.40;17.05;;;;;;;0.53;92.19;93956.34;5020035;28;20052;-50
2020/12/04 10:19:17;;;;;;;39.83;19.23;;;;;;;0.55;90.68;93951.84;5013324;28;20069;-52
2020/12/04 10:21:45;;;;;;;34.15;16.98;;;;;;;0.89;89.04;93959.78;4972879;28;20054;-52
2020/12/04 10:24:13;;;;;;;39.80;18.52;;;;;;;1.26;87.33;93947.63;5009710;28;20108;-51
2020/12/04 10:26:42;;;;;;;41.53;18.92;;;;;;;1.23;86.17;93959.13;4990708;28;20073;-51
2020/12/04 10:29:10;;;;;;;38.20;18.17;;;;;;;0.77;88.07;93960.16;5027243;28;20120;-51
2020/12/04 10:31:37;;;;;;;43.45;20.25;;;;;;;0.83;89.28;93950.00;4983548;28;20072;-54
2020/12/04 10:34:05;;;;;;;35.75;16.55;;;;;;;0.50;91.09;93941.06;5005921;28;20734;-52
2020/12/04 10:36:36;;;;;;;46.00;21.85;;;;;;;0.42;91.09;93938.41;4979826;28;20042;-50
2020/12/04 10:39:04;;;;;;;36.58;16.45;;;;;;;0.39;92.93;93939.50;5007575;28;20131;-54
2020/12/04 10:41:32;;;;;;;39.47;17.45;;;;;;;0.32;93.34;93940.25;4994308;28;20041;-52
2020/12/04 10:43:59;;;;;;;40.47;18.50;;;;;;;0.63;91.51;93935.53;5027833;28;20507;-52
2020/12/04 10:46:27;;;;;;;41.60;18.67;;;;;;;0.59;91.82;93924.66;4997327;28;20041;-50
2020/12/04 10:48:54;;;;;;;44.42;21.60;;;;;;;0.30;93.75;93917.03;5031133;28;20504;-51
2020/12/04 10:51:21;;;;;;;41.05;18.65;;;;;;;0.37;94.07;93919.88;4991941;28;20059;-52
2020/12/04 10:53:50;;;;;;;42.20;18.98;;;;;;;0.37;94.00;93906.91;5030084;28;20410;-51
2020/12/04 10:56:17;;;;;;;38.08;18.90;;;;;;;0.19;95.64;93904.28;4995371;28;20041;-48
2020/12/04 10:58:45;;;;;;;37.58;17.90;;;;;;;0.07;96.66;93906.28;5028347;28;20037;-49
2020/12/04 11:01:12;;;;;;;46.28;21.95;;;;;;;0.22;95.79;93898.81;4998483;28;20048;-51
2020/12/04 11:05:27;;;;;;;44.67;20.83;;;;;;;0.30;95.18;93900.69;5027158;28;20037;-51
2020/12/04 11:06:29;;;;;;;47.10;20.48;;;;;;;0.38;95.38;93888.63;4995917;28;20524;-51
2020/12/04 11:08:57;;;;;;;49.40;21.42;;;;;;;0.26;95.07;93888.97;5032751;28;20133;-54
2020/12/04 11:11:27;;;;;;;46.92;21.13;;;;;;;0.25;95.29;93890.75;5028075;28;20045;-52
2020/12/04 11:13:54;;;;;;;46.05;20.83;;;;;;;0.22;95.07;93889.25;5020770;28;20124;-52
2020/12/04 11:16:21;;;;;;;42.58;19.40;;;;;;;0.36;95.03;93885.38;5029577;28;20087;-50
2020/12/04 11:18:48;;;;;;;49.45;21.95;;;;;;;0.36;94.69;93881.97;4993553;28;20037;-53